sensor_id;sensor_type;location;lat;lon;timestamp;pressure;altitude;pressure_sealevel;temperature;humidity
44531;BME280;30240;47.418;0.700;2022-08-20T00:01:28;100788.81225585938;;;18.78;90.49
44531;BME280;30240;47.418;0.700;2022-08-20T00:03:53;100788.81225585938;;;18.78;90.49
44531;BME280;30240;47.418;0.700;2022-08-20T00:06:22;100791.60766601562;;;18.74;90.98
44531;BME280;30240;47.418;0.700;2022-08-20T00:08:44;100792.90771484375;;;18.69;91.0
44531;BME280;30240;47.418;0.700;2022-08-20T00:11:11;100788.69018554688;;;18.66;90.35
44531;BME280;30240;47.418;0.700;2022-08-20T00:13:36;100791.14990234375;;;18.66;89.91
44531;BME280;30240;47.418;0.700;2022-08-20T00:15:59;100791.14990234375;;;18.66;89.91
44531;BME280;30240;47.418;0.700;2022-08-20T00:18:24;100787.5;;;18.71;89.03
44531;BME280;30240;47.418;0.700;2022-08-20T00:20:51;100789.7216796875;;;18.69;88.02
44531;BME280;30240;47.418;0.700;2022-08-20T00:23:14;100793.90869140625;;;18.73;87.93
44531;BME280;30240;47.418;0.700;2022-08-20T00:25:39;100788.64135742188;;;18.67;87.46
44531;BME280;30240;47.418;0.700;2022-08-20T00:28:04;100788.64135742188;;;18.67;87.46
44531;BME280;30240;47.418;0.700;2022-08-20T00:30:30;100787.75024414062;;;18.7;87.37
44531;BME280;30240;47.418;0.700;2022-08-20T00:32:56;100784.00268554688;;;18.46;87.73
44531;BME280;30240;47.418;0.700;2022-08-20T00:35:21;100785.0341796875;;;18.57;87.62
44531;BME280;30240;47.418;0.700;2022-08-20T00:37:44;100785.986328125;;;18.48;87.9
44531;BME280;30240;47.418;0.700;2022-08-20T00:40:10;100782.8125;;;18.44;87.77
44531;BME280;30240;47.418;0.700;2022-08-20T00:42:39;100782.8125;;;18.44;87.77
44531;BME280;30240;47.418;0.700;2022-08-20T00:44:58;100783.09936523438;;;18.52;87.15
44531;BME280;30240;47.418;0.700;2022-08-20T00:47:24;100783.984375;;;18.46;86.27
44531;BME280;30240;47.418;0.700;2022-08-20T00:49:48;100781.89086914062;;;18.46;84.19
44531;BME280;30240;47.418;0.700;2022-08-20T00:52:17;100785.85815429688;;;18.6;83.9
44531;BME280;30240;47.418;0.700;2022-08-20T00:54:42;100785.85815429688;;;18.6;83.9
44531;BME280;30240;47.418;0.700;2022-08-20T00:57:06;100786.51733398438;;;18.52;83.36
44531;BME280;30240;47.418;0.700;2022-08-20T00:59:31;100786.572265625;;;18.64;83.3
44531;BME280;30240;47.418;0.700;2022-08-20T01:01:54;100784.130859375;;;18.48;82.3
44531;BME280;30240;47.418;0.700;2022-08-20T01:04:19;100777.65502929688;;;18.49;82.28
44531;BME280;30240;47.418;0.700;2022-08-20T01:06:43;100777.65502929688;;;18.49;82.28
44531;BME280;30240;47.418;0.700;2022-08-20T01:09:09;100778.2470703125;;;18.6;80.85
44531;BME280;30240;47.418;0.700;2022-08-20T01:11:34;100777.0263671875;;;18.36;79.38
44531;BME280;30240;47.418;0.700;2022-08-20T01:13:59;100774.9267578125;;;18.31;79.42
44531;BME280;30240;47.418;0.700;2022-08-20T01:16:26;100779.54711914062;;;18.39;79.53
44531;BME280;30240;47.418;0.700;2022-08-20T01:18:50;100779.54711914062;;;18.39;79.53
44531;BME280;30240;47.418;0.700;2022-08-20T01:21:14;100778.48510742188;;;18.28;79.71
44531;BME280;30240;47.418;0.700;2022-08-20T01:23:43;100782.69653320312;;;18.29;79.19
44531;BME280;30240;47.418;0.700;2022-08-20T01:26:05;100785.205078125;;;18.27;79.35
44531;BME280;30240;47.418;0.700;2022-08-20T01:28:33;100784.033203125;;;18.22;79.57
44531;BME280;30240;47.418;0.700;2022-08-20T01:30:54;100784.033203125;;;18.22;79.57
44531;BME280;30240;47.418;0.700;2022-08-20T01:33:20;100781.72607421875;;;18.22;79.35
44531;BME280;30240;47.418;0.700;2022-08-20T01:35:44;100778.38134765625;;;18.24;79.31
44531;BME280;30240;47.418;0.700;2022-08-20T01:38:09;100785.56518554688;;;18.21;79.96
44531;BME280;30240;47.418;0.700;2022-08-20T01:40:54;100784.68627929688;;;18.32;79.05
44531;BME280;30240;47.418;0.700;2022-08-20T01:42:58;100784.68627929688;;;18.32;79.05
44531;BME280;30240;47.418;0.700;2022-08-20T01:45:23;100784.67407226562;;;18.27;79.28
44531;BME280;30240;47.418;0.700;2022-08-20T01:47:48;100786.32202148438;;;18.41;79.14
44531;BME280;30240;47.418;0.700;2022-08-20T01:50:17;100788.8916015625;;;18.22;79.25
44531;BME280;30240;47.418;0.700;2022-08-20T01:52:42;100789.42260742188;;;18.34;79.32
44531;BME280;30240;47.418;0.700;2022-08-20T01:55:04;100789.42260742188;;;18.34;79.32
44531;BME280;30240;47.418;0.700;2022-08-20T01:57:29;100788.58032226562;;;18.42;78.82
44531;BME280;30240;47.418;0.700;2022-08-20T01:59:54;100792.22412109375;;;18.31;79.56
44531;BME280;30240;47.418;0.700;2022-08-20T02:02:19;100791.15600585938;;;18.27;79.48
44531;BME280;30240;47.418;0.700;2022-08-20T02:04:43;100791.32690429688;;;18.17;79.74
44531;BME280;30240;47.418;0.700;2022-08-20T02:07:13;100791.32690429688;;;18.17;79.74
44531;BME280;30240;47.418;0.700;2022-08-20T02:09:36;100796.64306640625;;;18.38;79.83
44531;BME280;30240;47.418;0.700;2022-08-20T02:11:59;100795.95336914062;;;18.15;80.77
44531;BME280;30240;47.418;0.700;2022-08-20T02:14:25;100799.35913085938;;;18.12;81.33
44531;BME280;30240;47.418;0.700;2022-08-20T02:16:49;100801.513671875;;;18.08;80.67
44531;BME280;30240;47.418;0.700;2022-08-20T02:19:19;100804.9560546875;;;18.04;80.95
44531;BME280;30240;47.418;0.700;2022-08-20T02:21:44;100804.9560546875;;;18.04;80.95
44531;BME280;30240;47.418;0.700;2022-08-20T02:24:04;100805.49926757812;;;18.1;81.12
44531;BME280;30240;47.418;0.700;2022-08-20T02:26:29;100805.79833984375;;;18.05;81.28
44531;BME280;30240;47.418;0.700;2022-08-20T02:28:54;100802.06298828125;;;18.08;81.63
44531;BME280;30240;47.418;0.700;2022-08-20T02:31:20;100802.76489257812;;;17.93;82.71
44531;BME280;30240;47.418;0.700;2022-08-20T02:33:44;100802.76489257812;;;17.93;82.71
44531;BME280;30240;47.418;0.700;2022-08-20T02:36:09;100793.25561523438;;;18.03;82.88
44531;BME280;30240;47.418;0.700;2022-08-20T02:38:33;100793.2373046875;;;17.91;83.76
44531;BME280;30240;47.418;0.700;2022-08-20T02:40:59;100789.70336914062;;;17.91;83.77
44531;BME280;30240;47.418;0.700;2022-08-20T02:43:23;100794.189453125;;;17.76;84.4
44531;BME280;30240;47.418;0.700;2022-08-20T02:45:49;100794.189453125;;;17.76;84.4
44531;BME280;30240;47.418;0.700;2022-08-20T02:48:16;100792.85888671875;;;17.76;84.03
44531;BME280;30240;47.418;0.700;2022-08-20T02:50:41;100789.48364257812;;;17.69;84.37
44531;BME280;30240;47.418;0.700;2022-08-20T02:53:04;100790.73486328125;;;17.69;84.13
44531;BME280;30240;47.418;0.700;2022-08-20T02:55:29;100790.27099609375;;;17.63;84.73
44531;BME280;30240;47.418;0.700;2022-08-20T02:57:55;100790.27099609375;;;17.63;84.73
44531;BME280;30240;47.418;0.700;2022-08-20T03:00:20;100792.626953125;;;17.58;84.76
44531;BME280;30240;47.418;0.700;2022-08-20T03:02:44;100789.61181640625;;;17.51;83.85
44531;BME280;30240;47.418;0.700;2022-08-20T03:05:09;100790.673828125;;;17.63;83.46
44531;BME280;30240;47.418;0.700;2022-08-20T03:07:39;100780.3466796875;;;17.69;82.49
44531;BME280;30240;47.418;0.700;2022-08-20T03:09:58;100780.3466796875;;;17.69;82.49
44531;BME280;30240;47.418;0.700;2022-08-20T03:12:23;100779.27856445312;;;17.63;82.64
44531;BME280;30240;47.418;0.700;2022-08-20T03:14:48;100780.45043945312;;;17.56;82.13
44531;BME280;30240;47.418;0.700;2022-08-20T03:17:14;100775.64086914062;;;17.66;81.66
44531;BME280;30240;47.418;0.700;2022-08-20T03:19:38;100774.70092773438;;;17.65;81.85
44531;BME280;30240;47.418;0.700;2022-08-20T03:22:04;100774.70092773438;;;17.65;81.85
44531;BME280;30240;47.418;0.700;2022-08-20T03:24:28;100776.953125;;;17.41;81.88
44531;BME280;30240;47.418;0.700;2022-08-20T03:26:53;100782.31811523438;;;17.49;82.24
44531;BME280;30240;47.418;0.700;2022-08-20T03:29:19;100781.1279296875;;;17.51;82.93
44531;BME280;30240;47.418;0.700;2022-08-20T03:31:44;100787.43896484375;;;17.46;83.79
44531;BME280;30240;47.418;0.700;2022-08-20T03:34:09;100787.43896484375;;;17.46;83.79
44531;BME280;30240;47.418;0.700;2022-08-20T03:36:34;100795.86791992188;;;17.52;84.47
44531;BME280;30240;47.418;0.700;2022-08-20T03:39:02;100798.41918945312;;;17.61;85.02
44531;BME280;30240;47.418;0.700;2022-08-20T03:41:24;100797.4853515625;;;17.73;85.07
44531;BME280;30240;47.418;0.700;2022-08-20T03:43:49;100798.22387695312;;;17.58;85.52
44531;BME280;30240;47.418;0.700;2022-08-20T03:46:14;100796.57592773438;;;17.58;85.76
44531;BME280;30240;47.418;0.700;2022-08-20T03:48:39;100796.57592773438;;;17.58;85.76
44531;BME280;30240;47.418;0.700;2022-08-20T03:51:04;100793.04809570312;;;17.53;85.97
44531;BME280;30240;47.418;0.700;2022-08-20T03:53:29;100799.951171875;;;17.51;85.7
44531;BME280;30240;47.418;0.700;2022-08-20T03:55:53;100800.5126953125;;;17.51;85.89
44531;BME280;30240;47.418;0.700;2022-08-20T03:58:18;100800.16479492188;;;17.7;85.23
44531;BME280;30240;47.418;0.700;2022-08-20T04:00:46;100800.16479492188;;;17.7;85.23
44531;BME280;30240;47.418;0.700;2022-08-20T04:03:09;100807.67211914062;;;17.59;85.74
44531;BME280;30240;47.418;0.700;2022-08-20T04:05:36;100808.92333984375;;;17.49;86.06
44531;BME280;30240;47.418;0.700;2022-08-20T04:08:00;100808.89282226562;;;17.41;86.62
44531;BME280;30240;47.418;0.700;2022-08-20T04:10:24;100807.36083984375;;;17.34;86.93
44531;BME280;30240;47.418;0.700;2022-08-20T04:12:48;100807.36083984375;;;17.34;86.93
44531;BME280;30240;47.418;0.700;2022-08-20T04:15:15;100807.03125;;;17.18;87.3
44531;BME280;30240;47.418;0.700;2022-08-20T04:17:40;100805.76782226562;;;17.23;87.44
44531;BME280;30240;47.418;0.700;2022-08-20T04:20:04;100808.69750976562;;;17.21;87.49
44531;BME280;30240;47.418;0.700;2022-08-20T04:22:29;100809.43603515625;;;17.18;87.89
44531;BME280;30240;47.418;0.700;2022-08-20T04:24:54;100809.43603515625;;;17.18;87.89
44531;BME280;30240;47.418;0.700;2022-08-20T04:27:19;100808.01391601562;;;17.03;88.46
44531;BME280;30240;47.418;0.700;2022-08-20T04:29:43;100815.0146484375;;;17.02;88.51
44531;BME280;30240;47.418;0.700;2022-08-20T04:32:09;100813.75122070312;;;17.0;88.56
44531;BME280;30240;47.418;0.700;2022-08-20T04:34:34;100817.1630859375;;;16.96;88.84
44531;BME280;30240;47.418;0.700;2022-08-20T04:36:59;100817.1630859375;;;16.96;88.84
44531;BME280;30240;47.418;0.700;2022-08-20T04:39:23;100812.99438476562;;;16.96;89.14
44531;BME280;30240;47.418;0.700;2022-08-20T04:41:49;100813.59252929688;;;16.87;89.25
44531;BME280;30240;47.418;0.700;2022-08-20T04:44:14;100811.82861328125;;;16.86;89.58
44531;BME280;30240;47.418;0.700;2022-08-20T04:46:39;100813.720703125;;;16.79;89.66
44531;BME280;30240;47.418;0.700;2022-08-20T04:49:05;100813.720703125;;;16.79;89.66
44531;BME280;30240;47.418;0.700;2022-08-20T04:51:29;100812.6708984375;;;16.76;90.01
44531;BME280;30240;47.418;0.700;2022-08-20T04:53:55;100811.05346679688;;;16.72;90.07
44531;BME280;30240;47.418;0.700;2022-08-20T04:56:19;100807.8125;;;16.73;90.12
44531;BME280;30240;47.418;0.700;2022-08-20T04:58:44;100806.0791015625;;;16.79;90.14
44531;BME280;30240;47.418;0.700;2022-08-20T05:01:10;100806.0791015625;;;16.79;90.14
44531;BME280;30240;47.418;0.700;2022-08-20T05:03:34;100806.97021484375;;;16.76;90.1
44531;BME280;30240;47.418;0.700;2022-08-20T05:05:59;100813.26293945312;;;16.72;90.34
44531;BME280;30240;47.418;0.700;2022-08-20T05:08:24;100814.43481445312;;;16.69;90.65
44531;BME280;30240;47.418;0.700;2022-08-20T05:10:49;100815.03295898438;;;16.61;90.86
44531;BME280;30240;47.418;0.700;2022-08-20T05:13:14;100815.03295898438;;;16.61;90.86
44531;BME280;30240;47.418;0.700;2022-08-20T05:15:39;100814.0380859375;;;16.64;90.7
44531;BME280;30240;47.418;0.700;2022-08-20T05:18:05;100814.89868164062;;;16.64;90.71
44531;BME280;30240;47.418;0.700;2022-08-20T05:20:30;100821.69799804688;;;16.64;90.89
44531;BME280;30240;47.418;0.700;2022-08-20T05:22:54;100823.99291992188;;;16.62;90.44
44531;BME280;30240;47.418;0.700;2022-08-20T05:25:18;100824.93896484375;;;16.65;90.25
44531;BME280;30240;47.418;0.700;2022-08-20T05:27:43;100824.93896484375;;;16.65;90.25
44531;BME280;30240;47.418;0.700;2022-08-20T05:30:10;100823.93798828125;;;16.68;90.15
44531;BME280;30240;47.418;0.700;2022-08-20T05:32:34;100824.67041015625;;;16.67;89.8
44531;BME280;30240;47.418;0.700;2022-08-20T05:34:59;100822.13134765625;;;16.62;89.24
44531;BME280;30240;47.418;0.700;2022-08-20T05:37:23;100822.607421875;;;16.65;88.88
44531;BME280;30240;47.418;0.700;2022-08-20T05:39:49;100822.607421875;;;16.65;88.88
44531;BME280;30240;47.418;0.700;2022-08-20T05:42:13;100826.89208984375;;;16.62;87.79
44531;BME280;30240;47.418;0.700;2022-08-20T05:44:39;100828.42407226562;;;16.69;87.85
44531;BME280;30240;47.418;0.700;2022-08-20T05:47:04;100830.74951171875;;;16.8;86.98
44531;BME280;30240;47.418;0.700;2022-08-20T05:49:29;100834.423828125;;;16.75;87.09
44531;BME280;30240;47.418;0.700;2022-08-20T05:51:54;100834.423828125;;;16.75;87.09
44531;BME280;30240;47.418;0.700;2022-08-20T05:54:19;100837.98217773438;;;16.78;86.92
44531;BME280;30240;47.418;0.700;2022-08-20T05:56:44;100835.09521484375;;;16.75;87.08
44531;BME280;30240;47.418;0.700;2022-08-20T05:59:09;100838.8916015625;;;16.9;86.71
44531;BME280;30240;47.418;0.700;2022-08-20T06:01:36;100837.03002929688;;;17.07;86.48
44531;BME280;30240;47.418;0.700;2022-08-20T06:03:59;100837.03002929688;;;17.07;86.48
44531;BME280;30240;47.418;0.700;2022-08-20T06:06:24;100841.36962890625;;;17.06;86.47
44531;BME280;30240;47.418;0.700;2022-08-20T06:08:49;100840.63110351562;;;17.02;86.11
44531;BME280;30240;47.418;0.700;2022-08-20T06:11:14;100840.576171875;;;17.07;85.72
44531;BME280;30240;47.418;0.700;2022-08-20T06:13:39;100848.84643554688;;;17.21;84.73
44531;BME280;30240;47.418;0.700;2022-08-20T06:16:04;100848.84643554688;;;17.21;84.73
44531;BME280;30240;47.418;0.700;2022-08-20T06:18:28;100849.98168945312;;;17.16;83.59
44531;BME280;30240;47.418;0.700;2022-08-20T06:20:54;100853.57666015625;;;17.42;82.96
44531;BME280;30240;47.418;0.700;2022-08-20T06:23:19;100855.40771484375;;;17.48;82.13
44531;BME280;30240;47.418;0.700;2022-08-20T06:25:44;100857.8857421875;;;17.53;81.71
44531;BME280;30240;47.418;0.700;2022-08-20T06:28:09;100857.8857421875;;;17.53;81.71
44531;BME280;30240;47.418;0.700;2022-08-20T06:30:34;100854.736328125;;;17.62;80.41
44531;BME280;30240;47.418;0.700;2022-08-20T06:32:59;100849.96948242188;;;17.69;79.58
44531;BME280;30240;47.418;0.700;2022-08-20T06:35:24;100850.53100585938;;;18.34;78.47
44531;BME280;30240;47.418;0.700;2022-08-20T06:37:49;100840.2587890625;;;18.36;79.13
44531;BME280;30240;47.418;0.700;2022-08-20T06:40:16;100840.2587890625;;;18.36;79.13
44531;BME280;30240;47.418;0.700;2022-08-20T06:42:39;100843.06030273438;;;18.57;78.37
44531;BME280;30240;47.418;0.700;2022-08-20T06:45:04;100841.14990234375;;;18.87;77.47
44531;BME280;30240;47.418;0.700;2022-08-20T06:47:29;100840.61889648438;;;19.11;76.76
44531;BME280;30240;47.418;0.700;2022-08-20T06:49:54;100838.2080078125;;;19.32;75.31
44531;BME280;30240;47.418;0.700;2022-08-20T06:52:19;100838.92822265625;;;19.19;74.99
44531;BME280;30240;47.418;0.700;2022-08-20T06:54:44;100838.92822265625;;;19.19;74.99
44531;BME280;30240;47.418;0.700;2022-08-20T06:57:09;100835.57739257812;;;20.2;71.39
44531;BME280;30240;47.418;0.700;2022-08-20T06:59:34;100836.21215820312;;;20.53;69.75
44531;BME280;30240;47.418;0.700;2022-08-20T07:01:59;100831.62231445312;;;21.81;66.3
44531;BME280;30240;47.418;0.700;2022-08-20T07:04:25;100831.4697265625;;;21.38;66.84
44531;BME280;30240;47.418;0.700;2022-08-20T07:06:48;100831.4697265625;;;21.38;66.84
44531;BME280;30240;47.418;0.700;2022-08-20T07:09:13;100832.01293945312;;;21.71;66.47
44531;BME280;30240;47.418;0.700;2022-08-20T07:11:39;100822.68676757812;;;21.29;65.47
44531;BME280;30240;47.418;0.700;2022-08-20T07:14:04;100837.90893554688;;;20.85;67.48
44531;BME280;30240;47.418;0.700;2022-08-20T07:16:28;100828.2958984375;;;21.86;63.04
44531;BME280;30240;47.418;0.700;2022-08-20T07:18:53;100828.2958984375;;;21.86;63.04
44531;BME280;30240;47.418;0.700;2022-08-20T07:21:19;100832.41577148438;;;20.51;66.58
44531;BME280;30240;47.418;0.700;2022-08-20T07:23:44;100830.93872070312;;;20.74;65.88
44531;BME280;30240;47.418;0.700;2022-08-20T07:26:09;100840.76538085938;;;20.6;66.66
44531;BME280;30240;47.418;0.700;2022-08-20T07:28:34;100841.02172851562;;;21.19;64.1
44531;BME280;30240;47.418;0.700;2022-08-20T07:30:59;100841.02172851562;;;21.19;64.1
44531;BME280;30240;47.418;0.700;2022-08-20T07:33:24;100841.30249023438;;;21.18;64.82
44531;BME280;30240;47.418;0.700;2022-08-20T07:35:49;100840.00244140625;;;21.16;65.88
44531;BME280;30240;47.418;0.700;2022-08-20T07:38:16;100852.81982421875;;;20.91;65.49
44531;BME280;30240;47.418;0.700;2022-08-20T07:40:38;100851.953125;;;21.02;64.89
44531;BME280;30240;47.418;0.700;2022-08-20T07:43:03;100851.953125;;;21.02;64.89
44531;BME280;30240;47.418;0.700;2022-08-20T07:45:29;100856.09130859375;;;20.98;64.76
44531;BME280;30240;47.418;0.700;2022-08-20T07:47:54;100841.5283203125;;;21.78;61.46
44531;BME280;30240;47.418;0.700;2022-08-20T07:50:21;100843.54858398438;;;23.02;58.96
44531;BME280;30240;47.418;0.700;2022-08-20T07:52:44;100840.59448242188;;;22.25;59.69
44531;BME280;30240;47.418;0.700;2022-08-20T07:55:11;100840.59448242188;;;22.25;59.69
44531;BME280;30240;47.418;0.700;2022-08-20T07:57:34;100843.56079101562;;;23.08;57.4
44531;BME280;30240;47.418;0.700;2022-08-20T07:59:59;100848.779296875;;;22.63;60.61
44531;BME280;30240;47.418;0.700;2022-08-20T08:02:24;100840.0146484375;;;23.1;58.99
44531;BME280;30240;47.418;0.700;2022-08-20T08:04:49;100837.04833984375;;;22.16;60.5
44531;BME280;30240;47.418;0.700;2022-08-20T08:07:14;100837.04833984375;;;22.16;60.5
44531;BME280;30240;47.418;0.700;2022-08-20T08:09:39;100830.32836914062;;;23.55;58.31
44531;BME280;30240;47.418;0.700;2022-08-20T08:12:04;100820.4833984375;;;23.21;58.04
44531;BME280;30240;47.418;0.700;2022-08-20T08:14:30;100821.71630859375;;;24.36;55.78
44531;BME280;30240;47.418;0.700;2022-08-20T08:16:56;100817.236328125;;;24.55;54.28
44531;BME280;30240;47.418;0.700;2022-08-20T08:19:19;100817.236328125;;;24.55;54.28
44531;BME280;30240;47.418;0.700;2022-08-20T08:21:44;100820.90454101562;;;23.88;54.38
44531;BME280;30240;47.418;0.700;2022-08-20T08:24:09;100828.42407226562;;;24.69;53.41
44531;BME280;30240;47.418;0.700;2022-08-20T08:26:34;100832.83081054688;;;23.44;55.92
44531;BME280;30240;47.418;0.700;2022-08-20T08:28:59;100825.59204101562;;;24.51;52.95
44531;BME280;30240;47.418;0.700;2022-08-20T08:31:24;100828.43627929688;;;25.81;50.75
44531;BME280;30240;47.418;0.700;2022-08-20T08:33:49;100828.43627929688;;;25.81;50.75
44531;BME280;30240;47.418;0.700;2022-08-20T08:36:14;100822.83325195312;;;23.98;54.54
44531;BME280;30240;47.418;0.700;2022-08-20T08:38:40;100821.84448242188;;;23.87;53.31
44531;BME280;30240;47.418;0.700;2022-08-20T08:41:10;100824.267578125;;;24.11;53.64
44531;BME280;30240;47.418;0.700;2022-08-20T08:43:29;100823.96240234375;;;25.49;51.47
44531;BME280;30240;47.418;0.700;2022-08-20T08:45:58;100823.96240234375;;;25.49;51.47
44531;BME280;30240;47.418;0.700;2022-08-20T08:48:19;100825.00610351562;;;24.95;51.58
44531;BME280;30240;47.418;0.700;2022-08-20T08:50:46;100825.97045898438;;;25.66;50.83
44531;BME280;30240;47.418;0.700;2022-08-20T08:53:14;100829.74243164062;;;25.77;49.86
44531;BME280;30240;47.418;0.700;2022-08-20T08:53:16;100829.74243164062;;;25.77;49.86
44531;BME280;30240;47.418;0.700;2022-08-20T08:55:34;100824.54833984375;;;26.95;47.09
44531;BME280;30240;47.418;0.700;2022-08-20T08:58:01;100824.54833984375;;;26.95;47.09
44531;BME280;30240;47.418;0.700;2022-08-20T09:00:25;100820.90454101562;;;25.73;48.36
44531;BME280;30240;47.418;0.700;2022-08-20T09:02:55;100818.57299804688;;;27.43;46.36
44531;BME280;30240;47.418;0.700;2022-08-20T09:05:17;100810.76049804688;;;25.77;49.1
44531;BME280;30240;47.418;0.700;2022-08-20T09:07:40;100812.12768554688;;;24.55;51.23
44531;BME280;30240;47.418;0.700;2022-08-20T09:10:04;100812.12768554688;;;24.55;51.23
44531;BME280;30240;47.418;0.700;2022-08-20T09:12:28;100807.89184570312;;;25.05;51.64
44531;BME280;30240;47.418;0.700;2022-08-20T09:14:54;100809.82666015625;;;26.06;48.8
44531;BME280;30240;47.418;0.700;2022-08-20T09:17:21;100815.0146484375;;;26.12;48.98
44531;BME280;30240;47.418;0.700;2022-08-20T09:19:44;100816.5771484375;;;26.98;47.03
44531;BME280;30240;47.418;0.700;2022-08-20T09:22:10;100816.5771484375;;;26.98;47.03
44531;BME280;30240;47.418;0.700;2022-08-20T09:24:34;100812.57934570312;;;26.95;46.99
44531;BME280;30240;47.418;0.700;2022-08-20T09:26:58;100813.11645507812;;;25.32;49.21
44531;BME280;30240;47.418;0.700;2022-08-20T09:29:23;100809.40551757812;;;26.09;47.99
44531;BME280;30240;47.418;0.700;2022-08-20T09:31:48;100804.72412109375;;;26.77;46.54
44531;BME280;30240;47.418;0.700;2022-08-20T09:34:14;100804.72412109375;;;26.77;46.54
44531;BME280;30240;47.418;0.700;2022-08-20T09:36:39;100803.22875976562;;;26.89;46.66
44531;BME280;30240;47.418;0.700;2022-08-20T09:39:03;100798.6572265625;;;27.17;46.46
44531;BME280;30240;47.418;0.700;2022-08-20T09:41:29;100803.08837890625;;;24.99;50.07
44531;BME280;30240;47.418;0.700;2022-08-20T09:43:53;100799.53002929688;;;24.22;51.34
44531;BME280;30240;47.418;0.700;2022-08-20T09:46:19;100799.53002929688;;;24.22;51.34
44531;BME280;30240;47.418;0.700;2022-08-20T09:48:44;100805.64575195312;;;24.59;50.61
44531;BME280;30240;47.418;0.700;2022-08-20T09:51:08;100809.34448242188;;;23.52;53.98
44531;BME280;30240;47.418;0.700;2022-08-20T09:53:34;100814.04418945312;;;23.59;54.13
44531;BME280;30240;47.418;0.700;2022-08-20T09:55:58;100811.24877929688;;;24.39;51.5
44531;BME280;30240;47.418;0.700;2022-08-20T09:58:29;100813.4033203125;;;25.99;48.32
44531;BME280;30240;47.418;0.700;2022-08-20T09:58:33;100813.4033203125;;;25.99;48.32
44531;BME280;30240;47.418;0.700;2022-08-20T10:00:49;100813.4033203125;;;25.99;48.32
44531;BME280;30240;47.418;0.700;2022-08-20T10:03:14;100805.810546875;;;27.16;45.79
44531;BME280;30240;47.418;0.700;2022-08-20T10:05:38;100804.13208007812;;;26.94;47.1
44531;BME280;30240;47.418;0.700;2022-08-20T10:08:04;100796.923828125;;;28.51;43.57
44531;BME280;30240;47.418;0.700;2022-08-20T10:10:29;100795.47119140625;;;29.96;40.4
44531;BME280;30240;47.418;0.700;2022-08-20T10:12:53;100795.47119140625;;;29.96;40.4
44531;BME280;30240;47.418;0.700;2022-08-20T10:15:19;100786.36474609375;;;26.96;46.57
44531;BME280;30240;47.418;0.700;2022-08-20T10:17:43;100800.72021484375;;;27.73;44.07
44531;BME280;30240;47.418;0.700;2022-08-20T10:20:11;100797.17407226562;;;26.72;46.24
44531;BME280;30240;47.418;0.700;2022-08-20T10:22:34;100795.45288085938;;;24.9;48.62
44531;BME280;30240;47.418;0.700;2022-08-20T10:24:58;100795.45288085938;;;24.9;48.62
44531;BME280;30240;47.418;0.700;2022-08-20T10:27:23;100802.81372070312;;;26.54;47.57
44531;BME280;30240;47.418;0.700;2022-08-20T10:29:48;100790.41137695312;;;27.22;44.36
44531;BME280;30240;47.418;0.700;2022-08-20T10:32:15;100795.27587890625;;;23.84;51.98
44531;BME280;30240;47.418;0.700;2022-08-20T10:34:39;100786.9384765625;;;25.77;47.29
44531;BME280;30240;47.418;0.700;2022-08-20T10:37:04;100786.9384765625;;;25.77;47.29
44531;BME280;30240;47.418;0.700;2022-08-20T10:39:28;100788.06762695312;;;26.5;45.3
44531;BME280;30240;47.418;0.700;2022-08-20T10:41:53;100780.908203125;;;26.72;44.56
44531;BME280;30240;47.418;0.700;2022-08-20T10:44:19;100774.462890625;;;25.96;47.38
44531;BME280;30240;47.418;0.700;2022-08-20T10:46:43;100772.265625;;;25.99;46.75
44531;BME280;30240;47.418;0.700;2022-08-20T10:49:08;100772.265625;;;25.99;46.75
44531;BME280;30240;47.418;0.700;2022-08-20T10:51:34;100773.88305664062;;;27.45;44.48
44531;BME280;30240;47.418;0.700;2022-08-20T10:53:59;100777.685546875;;;25.7;46.42
44531;BME280;30240;47.418;0.700;2022-08-20T10:56:23;100772.76611328125;;;26.09;47.16
44531;BME280;30240;47.418;0.700;2022-08-20T10:58:48;100766.38793945312;;;25.92;47.31
44531;BME280;30240;47.418;0.700;2022-08-20T11:01:14;100766.38793945312;;;25.92;47.31
44531;BME280;30240;47.418;0.700;2022-08-20T11:03:38;100771.37451171875;;;29.27;40.77
44531;BME280;30240;47.418;0.700;2022-08-20T11:06:04;100771.45385742188;;;26.26;45.2
44531;BME280;30240;47.418;0.700;2022-08-20T11:08:29;100773.98681640625;;;28.21;42.73
44531;BME280;30240;47.418;0.700;2022-08-20T11:10:53;100766.26586914062;;;28.34;43.55
44531;BME280;30240;47.418;0.700;2022-08-20T11:13:19;100766.26586914062;;;28.34;43.55
44531;BME280;30240;47.418;0.700;2022-08-20T11:15:44;100773.6083984375;;;27.92;42.47
44531;BME280;30240;47.418;0.700;2022-08-20T11:18:09;100770.51391601562;;;25.45;48.43